Time;durP1;ratioP1;P1;durP2;ratioP2;P2;SDS_P1;SDS_P2;PMS_P1;PMS_P2;Temp;Humidity;BMP_temperature;BMP_pressure;BME280_temperature;BME280_humidity;BME280_pressure;Samples;Min_cycle;Max_cycle;Signal;HPM_P1;HPM_P2
2022/01/28 00:05:01;;;;;;;20.05;2.65;;;4.70;99.90;;;;;;5030760;28;20063;-72
2022/01/28 00:07:26;;;;;;;15.98;4.15;;;4.80;99.90;;;;;;5053658;28;20040;-71
2022/01/28 00:09:52;;;;;;;13.23;3.45;;;4.70;99.90;;;;;;5052181;28;20084;-71
2022/01/28 00:12:18;;;;;;;15.10;3.17;;;4.70;99.90;;;;;;5051357;28;20483;-72
2022/01/28 00:39:12;;;;;;;13.25;3.42;;;4.80;99.90;;;;;;5032440;28;20057;-71
2022/01/28 00:41:38;;;;;;;18.13;4.13;;;4.80;99.90;;;;;;5052753;28;20055;-71
2022/01/28 00:44:04;;;;;;;25.50;3.55;;;4.80;99.90;;;;;;5051426;28;20053;-71
2022/01/28 00:46:30;;;;;;;18.38;3.95;;;4.80;99.90;;;;;;5050542;28;20107;-71
2022/01/28 00:48:56;;;;;;;13.13;3.17;;;4.80;99.90;;;;;;5052384;28;20087;-71
2022/01/28 00:51:22;;;;;;;22.35;4.68;;;4.90;99.90;;;;;;5052531;28;20076;-71
2022/01/28 00:53:48;;;;;;;22.65;5.80;;;4.90;99.90;;;;;;5051149;28;20053;-71
2022/01/28 00:56:14;;;;;;;19.10;4.55;;;4.90;99.90;;;;;;5052679;28;20060;-71
2022/01/28 00:58:39;;;;;;;15.52;3.50;;;5.00;99.90;;;;;;5050953;28;20549;-72
2022/01/28 01:01:05;;;;;;;14.48;3.50;;;5.10;99.90;;;;;;5050539;28;20045;-71
2022/01/28 01:03:30;;;;;;;17.70;4.68;;;5.10;99.90;;;;;;5051125;28;20438;-70
2022/01/28 01:05:56;;;;;;;14.27;2.90;;;5.10;99.90;;;;;;5051125;28;20049;-70
2022/01/28 01:08:22;;;;;;;14.20;3.20;;;5.10;99.90;;;;;;5049219;28;20052;-70
2022/01/28 01:10:49;;;;;;;20.60;4.85;;;5.10;99.90;;;;;;5052093;28;20071;-70
2022/01/28 01:13:15;;;;;;;20.30;3.78;;;5.10;99.90;;;;;;5050734;28;20545;-70
2022/01/28 01:15:44;;;;;;;17.92;3.40;;;5.10;99.90;;;;;;5049992;28;20061;-70
2022/01/28 01:18:18;;;;;;;18.38;3.38;;;5.00;99.90;;;;;;5049924;28;20481;-70
2022/01/28 01:23:21;;;;;;;16.00;3.40;;;5.10;99.90;;;;;;5050891;28;20052;-70
2022/01/28 01:25:55;;;;;;;10.45;3.22;;;5.10;99.90;;;;;;5051764;28;20570;-70
2022/01/28 01:28:26;;;;;;;18.45;4.00;;;5.10;99.90;;;;;;5050007;28;20045;-70
2022/01/28 01:30:52;;;;;;;14.40;3.67;;;5.10;99.90;;;;;;5050482;28;20068;-70
2022/01/28 01:33:20;;;;;;;20.20;4.18;;;5.10;99.90;;;;;;5050572;28;20045;-70
2022/01/28 01:35:45;;;;;;;20.90;4.28;;;5.10;99.90;;;;;;5049913;28;20107;-70
2022/01/28 01:38:11;;;;;;;14.27;3.72;;;5.00;99.90;;;;;;5051551;28;20801;-70
2022/01/28 01:40:50;;;;;;;32.80;5.88;;;5.00;99.90;;;;;;5049864;28;20060;-70
2022/01/28 01:43:29;;;;;;;22.20;3.83;;;4.90;99.90;;;;;;5051206;28;20051;-70
2022/01/28 01:54:08;;;;;;;18.63;3.90;;;4.90;99.90;;;;;;5049517;28;20081;-71
2022/01/28 01:56:37;;;;;;;28.77;5.53;;;5.00;99.90;;;;;;5049189;28;20562;-70
2022/01/28 01:59:02;;;;;;;21.65;4.65;;;5.00;99.90;;;;;;5050239;28;20132;-70
2022/01/28 02:01:28;;;;;;;30.30;5.45;;;5.00;99.90;;;;;;5049524;28;20064;-70
2022/01/28 02:03:54;;;;;;;28.80;5.57;;;5.10;99.90;;;;;;5048943;28;20041;-70
2022/01/28 02:06:21;;;;;;;23.17;4.20;;;5.10;99.90;;;;;;5050020;28;20090;-70
2022/01/28 02:08:47;;;;;;;25.98;4.43;;;5.20;99.90;;;;;;5049970;28;20173;-70
2022/01/28 02:11:13;;;;;;;24.48;5.53;;;5.20;99.90;;;;;;5049480;28;20128;-70
2022/01/28 02:13:40;;;;;;;23.10;5.75;;;5.30;99.90;;;;;;5050989;28;20136;-70
2022/01/28 02:16:07;;;;;;;16.65;4.25;;;5.40;99.90;;;;;;5049827;28;20061;-71
2022/01/28 02:18:33;;;;;;;30.33;7.00;;;5.40;99.90;;;;;;5049302;28;20123;-70
2022/01/28 02:21:06;;;;;;;22.45;4.32;;;5.40;99.90;;;;;;5049711;28;20094;-70
2022/01/28 02:23:32;;;;;;;25.40;5.57;;;5.40;99.90;;;;;;5049582;28;20060;-70
2022/01/28 02:25:59;;;;;;;25.80;4.85;;;5.40;99.90;;;;;;5050096;28;20411;-70
2022/01/28 02:28:27;;;;;;;32.92;5.47;;;5.40;99.90;;;;;;5049917;28;20447;-70
2022/01/28 02:30:53;;;;;;;20.00;5.18;;;5.40;99.90;;;;;;5049145;28;20045;-70
2022/01/28 02:33:24;;;;;;;24.55;5.47;;;5.30;99.90;;;;;;5050560;28;20091;-70
2022/01/28 02:35:51;;;;;;;19.20;4.70;;;5.30;99.90;;;;;;5049616;28;20499;-70
2022/01/28 02:38:20;;;;;;;22.05;4.75;;;5.30;99.90;;;;;;5050256;28;20037;-70
2022/01/28 02:40:50;;;;;;;18.85;4.90;;;5.30;99.90;;;;;;5049492;28;20057;-70
2022/01/28 02:46:07;;;;;;;17.02;3.70;;;5.30;99.90;;;;;;5048455;28;20053;-70
2022/01/28 02:48:35;;;;;;;20.63;5.07;;;5.30;99.90;;;;;;5049603;28;20053;-70
2022/01/28 02:53:41;;;;;;;19.27;3.80;;;5.30;99.90;;;;;;5048907;28;20059;-70
2022/01/28 02:56:16;;;;;;;26.42;6.00;;;5.40;99.90;;;;;;5050895;28;20033;-70
2022/01/28 02:58:43;;;;;;;26.23;4.50;;;5.40;99.90;;;;;;5049137;28;20049;-70
2022/01/28 03:01:12;;;;;;;13.05;4.03;;;5.30;99.90;;;;;;5049976;28;20048;-70
2022/01/28 03:03:38;;;;;;;17.30;5.53;;;5.40;99.90;;;;;;5048914;28;20511;-69
2022/01/28 03:06:04;;;;;;;22.63;4.00;;;5.30;99.90;;;;;;5049225;28;20041;-70
2022/01/28 03:08:30;;;;;;;13.93;3.90;;;5.30;99.90;;;;;;5049343;28;20056;-70
2022/01/28 03:16:14;;;;;;;16.27;4.25;;;5.20;99.90;;;;;;5052995;28;20060;-70
2022/01/28 03:18:52;;;;;;;20.25;4.25;;;5.20;99.90;;;;;;5052908;28;20045;-70
2022/01/28 03:23:47;;;;;;;17.02;3.58;;;5.20;99.90;;;;;;5052611;28;20122;-70
2022/01/28 03:26:14;;;;;;;17.08;4.10;;;5.10;99.90;;;;;;5053032;28;20569;-70
2022/01/28 03:28:39;;;;;;;13.35;3.10;;;5.00;99.90;;;;;;5051962;28;20056;-69
2022/01/28 03:31:05;;;;;;;14.55;3.97;;;5.00;99.90;;;;;;5054458;28;20049;-70
2022/01/28 03:33:31;;;;;;;14.57;3.30;;;4.90;99.90;;;;;;5052813;28;20061;-70
2022/01/28 03:35:57;;;;;;;26.48;3.75;;;4.90;99.90;;;;;;5051800;28;20273;-69
2022/01/28 03:38:23;;;;;;;20.02;4.00;;;4.90;99.90;;;;;;5051085;28;20045;-70
2022/01/28 03:40:51;;;;;;;19.35;4.38;;;4.90;99.90;;;;;;5051218;28;20391;-69
2022/01/28 03:43:17;;;;;;;18.50;3.58;;;4.90;99.90;;;;;;5049626;28;20127;-69
2022/01/28 03:45:42;;;;;;;17.60;4.05;;;4.90;99.90;;;;;;5052240;28;20135;-70
2022/01/28 03:48:08;;;;;;;18.10;3.20;;;4.90;99.90;;;;;;5051941;28;20142;-70
2022/01/28 03:50:34;;;;;;;22.20;3.75;;;4.90;99.90;;;;;;5053159;28;20041;-69
2022/01/28 03:53:05;;;;;;;14.60;3.28;;;4.90;99.90;;;;;;5053686;28;20072;-70
2022/01/28 03:55:31;;;;;;;11.95;3.20;;;4.90;99.90;;;;;;5051723;28;20040;-69
2022/01/28 03:57:57;;;;;;;12.35;3.75;;;4.90;99.90;;;;;;5053808;28;20045;-70
2022/01/28 04:00:26;;;;;;;14.43;2.50;;;5.00;99.90;;;;;;5054057;28;20489;-70
2022/01/28 04:03:03;;;;;;;25.33;5.07;;;5.00;99.90;;;;;;5051522;28;20574;-70
2022/01/28 04:13:49;;;;;;;20.42;4.05;;;5.00;99.90;;;;;;5051775;28;20057;-70
2022/01/28 04:19:03;;;;;;;33.15;4.47;;;4.90;99.90;;;;;;5042641;28;20049;-70
2022/01/28 04:21:30;;;;;;;16.50;3.85;;;5.00;99.90;;;;;;5051972;28;20048;-70
2022/01/28 04:23:56;;;;;;;18.10;3.65;;;5.00;99.90;;;;;;5050750;28;20060;-70
2022/01/28 04:26:22;;;;;;;18.75;4.75;;;5.00;99.90;;;;;;5051067;28;20033;-70
2022/01/28 04:28:47;;;;;;;13.90;3.38;;;5.00;99.90;;;;;;5050704;28;20389;-69
2022/01/28 04:31:13;;;;;;;24.70;4.50;;;5.00;99.90;;;;;;5050960;28;20076;-70
2022/01/28 04:33:39;;;;;;;21.30;3.88;;;5.00;99.90;;;;;;5051567;28;20049;-70
2022/01/28 04:36:07;;;;;;;17.67;4.25;;;5.00;99.90;;;;;;5051826;28;20045;-70
2022/01/28 04:38:41;;;;;;;22.02;4.22;;;5.00;99.90;;;;;;5051214;28;20446;-69
2022/01/28 04:43:50;;;;;;;18.77;3.65;;;4.90;99.90;;;;;;5051550;28;20061;-70
2022/01/28 04:49:10;;;;;;;21.10;4.53;;;4.80;99.90;;;;;;5051163;28;20049;-70
2022/01/28 04:52:15;;;;;;;19.83;4.22;;;4.80;99.90;;;;;;5050682;28;20041;-70
2022/01/28 05:02:25;;;;;;;14.35;3.70;;;4.60;99.90;;;;;;5051237;28;20063;-70
2022/01/28 05:10:23;;;;;;;16.17;3.53;;;4.60;99.90;;;;;;5050900;28;20484;-70
2022/01/28 05:26:33;;;;;;;15.93;3.10;;;4.40;99.90;;;;;;5064280;28;20080;-69
2022/01/28 05:28:59;;;;;;;19.73;3.35;;;4.40;99.90;;;;;;5029892;28;20049;-69
2022/01/28 05:31:25;;;;;;;24.27;5.93;;;4.40;99.90;;;;;;5031011;28;20053;-69
2022/01/28 05:33:51;;;;;;;12.52;3.00;;;4.40;99.90;;;;;;5036037;28;20048;-69
2022/01/28 05:36:16;;;;;;;16.83;3.95;;;4.40;99.90;;;;;;5050232;28;20044;-69
2022/01/28 05:38:42;;;;;;;14.63;2.95;;;4.40;99.90;;;;;;5051130;28;20098;-68
2022/01/28 05:41:07;;;;;;;12.85;2.63;;;4.40;99.90;;;;;;5049797;28;20809;-69
2022/01/28 05:43:33;;;;;;;16.15;3.95;;;4.50;99.90;;;;;;5050145;28;20435;-69
2022/01/28 05:45:59;;;;;;;18.33;4.88;;;4.50;99.90;;;;;;5049682;28;20041;-69
2022/01/28 05:48:24;;;;;;;14.07;3.72;;;4.50;99.90;;;;;;5049404;28;20099;-69
2022/01/28 05:50:50;;;;;;;19.75;3.42;;;4.60;99.90;;;;;;5050207;28;20053;-69
2022/01/28 05:53:15;;;;;;;17.90;3.67;;;4.60;99.90;;;;;;5050661;28;20495;-69
2022/01/28 05:55:41;;;;;;;13.25;3.05;;;4.60;99.90;;;;;;5049728;28;20048;-69
2022/01/28 05:58:07;;;;;;;14.48;2.90;;;4.70;99.90;;;;;;5049256;28;20087;-69
2022/01/28 06:00:32;;;;;;;13.93;3.13;;;4.70;99.90;;;;;;5047568;28;20048;-69
2022/01/28 06:02:58;;;;;;;15.27;3.33;;;4.70;99.90;;;;;;5050004;28;20049;-70
2022/01/28 06:05:30;;;;;;;19.75;4.00;;;4.80;99.90;;;;;;5048747;28;20045;-69
2022/01/28 06:07:56;;;;;;;27.40;4.43;;;4.80;99.90;;;;;;5049626;28;20530;-69
2022/01/28 06:10:22;;;;;;;18.95;4.25;;;4.80;99.90;;;;;;5048666;28;20052;-69
2022/01/28 06:12:47;;;;;;;15.82;4.35;;;4.90;99.90;;;;;;5044720;28;20065;-69
2022/01/28 06:15:15;;;;;;;18.70;3.75;;;4.90;99.90;;;;;;5039336;28;20045;-69
2022/01/28 06:17:40;;;;;;;27.08;4.75;;;4.90;99.90;;;;;;5048929;28;20179;-70
2022/01/28 06:20:09;;;;;;;23.00;3.38;;;5.00;99.90;;;;;;5049874;28;20153;-69
2022/01/28 06:22:39;;;;;;;18.52;3.60;;;5.00;99.90;;;;;;5049714;28;20057;-69
2022/01/28 06:25:06;;;;;;;17.80;4.43;;;5.00;99.90;;;;;;5048859;28;20059;-69
2022/01/28 06:27:31;;;;;;;15.52;4.78;;;5.00;99.90;;;;;;5049698;28;20551;-69
2022/01/28 06:29:57;;;;;;;18.40;4.60;;;5.10;99.90;;;;;;5049608;28;20132;-69
2022/01/28 06:32:22;;;;;;;17.88;3.53;;;5.10;99.90;;;;;;5049199;28;20127;-69
2022/01/28 06:34:48;;;;;;;13.85;4.18;;;5.10;99.90;;;;;;5047759;28;20045;-69
2022/01/28 06:37:13;;;;;;;34.60;6.00;;;5.10;99.90;;;;;;5048775;28;20057;-69
2022/01/28 06:39:39;;;;;;;20.33;3.65;;;5.10;99.90;;;;;;5049644;28;20041;-70
2022/01/28 06:42:05;;;;;;;18.95;5.18;;;5.10;99.90;;;;;;5048943;28;20037;-69
2022/01/28 06:44:31;;;;;;;11.05;3.67;;;5.10;99.90;;;;;;5047980;28;20052;-69
2022/01/28 06:46:57;;;;;;;17.45;3.40;;;5.10;99.90;;;;;;5049571;28;20051;-69
2022/01/28 06:49:23;;;;;;;20.42;3.67;;;5.00;99.90;;;;;;5048658;28;20049;-69
2022/01/28 06:51:48;;;;;;;19.55;4.43;;;5.10;99.90;;;;;;5048172;28;20503;-70
2022/01/28 06:54:14;;;;;;;24.45;4.75;;;5.00;99.90;;;;;;5048363;28;20534;-70
2022/01/28 06:56:40;;;;;;;21.98;3.97;;;5.00;99.90;;;;;;5049247;28;20057;-70
2022/01/28 06:59:05;;;;;;;28.02;5.75;;;5.00;99.90;;;;;;5048236;28;20484;-70
2022/01/28 07:01:31;;;;;;;18.92;4.70;;;5.00;99.90;;;;;;5050789;28;20049;-70
2022/01/28 07:03:56;;;;;;;16.10;4.18;;;5.00;99.90;;;;;;5049098;28;20159;-71
2022/01/28 07:06:23;;;;;;;34.67;6.40;;;5.00;99.90;;;;;;5048803;28;20086;-70
2022/01/28 07:08:49;;;;;;;21.52;5.43;;;5.00;99.90;;;;;;5049221;28;20483;-70
2022/01/28 07:11:14;;;;;;;24.42;4.55;;;5.00;99.90;;;;;;5050572;28;20056;-70
2022/01/28 07:13:40;;;;;;;29.10;4.90;;;5.00;99.90;;;;;;5048143;28;20059;-70
2022/01/28 07:16:06;;;;;;;27.45;5.78;;;5.00;99.90;;;;;;5050568;28;20041;-70
2022/01/28 07:18:32;;;;;;;21.13;4.65;;;5.00;99.90;;;;;;5049073;28;20095;-70
2022/01/28 07:20:57;;;;;;;20.45;4.55;;;5.00;99.90;;;;;;5049271;28;20127;-70
2022/01/28 07:23:23;;;;;;;24.48;4.90;;;5.00;99.90;;;;;;5048163;28;20048;-70
2022/01/28 07:25:49;;;;;;;23.65;3.88;;;5.00;99.90;;;;;;5048688;28;20052;-70
2022/01/28 07:28:14;;;;;;;27.67;5.30;;;5.00;99.90;;;;;;5047915;28;20049;-70
2022/01/28 07:30:40;;;;;;;21.30;4.72;;;5.00;99.90;;;;;;5048149;28;20037;-70
2022/01/28 07:33:07;;;;;;;17.15;3.90;;;4.90;99.90;;;;;;5048759;28;20458;-70
2022/01/28 07:35:34;;;;;;;22.45;4.07;;;4.90;99.90;;;;;;5048482;28;20075;-70
2022/01/28 07:38:00;;;;;;;15.35;3.80;;;4.80;99.90;;;;;;5048716;28;20055;-70
2022/01/28 07:40:25;;;;;;;24.08;4.43;;;4.80;99.90;;;;;;5048479;28;20063;-69
2022/01/28 07:42:51;;;;;;;27.17;4.90;;;4.70;99.90;;;;;;5048765;28;20045;-69
2022/01/28 07:45:17;;;;;;;17.08;3.75;;;4.70;99.90;;;;;;5046541;28;20052;-69
2022/01/28 07:47:43;;;;;;;12.30;3.50;;;4.70;99.90;;;;;;5047505;28;20063;-69
2022/01/28 07:50:10;;;;;;;16.80;3.95;;;4.60;99.90;;;;;;5048740;28;20061;-69
2022/01/28 07:52:40;;;;;;;26.38;4.07;;;4.60;99.90;;;;;;5048831;28;20127;-70
2022/01/28 07:55:07;;;;;;;20.10;4.10;;;4.60;99.90;;;;;;5048007;28;20053;-69
2022/01/28 07:57:34;;;;;;;15.05;3.00;;;4.60;99.90;;;;;;5050239;28;20041;-70
2022/01/28 08:00:00;;;;;;;14.90;2.70;;;4.60;99.90;;;;;;5048136;28;20049;-69
2022/01/28 08:02:27;;;;;;;12.98;2.95;;;4.50;99.90;;;;;;5047750;28;20376;-70
2022/01/28 08:04:53;;;;;;;18.20;3.28;;;4.50;99.90;;;;;;5051876;28;20091;-70
2022/01/28 08:07:20;;;;;;;15.55;3.25;;;4.50;99.90;;;;;;5052534;28;20087;-70
2022/01/28 08:09:45;;;;;;;17.52;3.75;;;4.50;99.90;;;;;;5051182;28;20040;-70
2022/01/28 08:12:11;;;;;;;11.00;2.17;;;4.50;99.90;;;;;;5052179;28;20132;-70
2022/01/28 08:14:36;;;;;;;14.38;4.35;;;4.50;99.90;;;;;;5051167;28;20186;-70
2022/01/28 08:17:02;;;;;;;16.33;3.20;;;4.50;99.90;;;;;;5050915;28;20044;-70
2022/01/28 08:19:28;;;;;;;17.85;3.30;;;4.50;99.90;;;;;;5051456;28;20061;-70
2022/01/28 08:21:53;;;;;;;17.73;4.47;;;4.50;99.90;;;;;;5051709;28;20053;-70
2022/01/28 08:24:19;;;;;;;18.90;4.65;;;4.50;99.90;;;;;;5050989;28;20060;-70
2022/01/28 08:26:45;;;;;;;12.52;3.65;;;4.60;99.90;;;;;;5053217;28;20134;-70
2022/01/28 08:29:10;;;;;;;22.90;4.20;;;4.60;99.90;;;;;;5051952;28;20045;-70
2022/01/28 08:31:37;;;;;;;21.27;3.38;;;4.60;99.90;;;;;;5048213;28;20037;-70
2022/01/28 08:34:02;;;;;;;25.80;4.43;;;4.60;99.90;;;;;;5050811;28;20526;-70
2022/01/28 08:36:28;;;;;;;15.52;3.25;;;4.60;99.90;;;;;;5052662;28;20128;-71
2022/01/28 08:38:55;;;;;;;21.30;5.30;;;4.70;99.90;;;;;;5039395;28;20099;-70
2022/01/28 08:41:24;;;;;;;19.08;4.25;;;4.80;99.90;;;;;;5031933;28;20385;-70
2022/01/28 08:43:51;;;;;;;20.60;4.40;;;4.80;99.90;;;;;;5032192;28;20060;-70
2022/01/28 08:46:17;;;;;;;18.08;4.13;;;4.90;99.90;;;;;;5031681;28;20156;-70
2022/01/28 08:48:43;;;;;;;22.02;4.03;;;5.00;99.90;;;;;;5031336;28;20137;-70
2022/01/28 08:51:09;;;;;;;17.38;3.38;;;5.10;99.90;;;;;;5031071;28;20048;-71
2022/01/28 08:53:37;;;;;;;23.77;4.35;;;5.10;99.90;;;;;;5031495;28;20045;-71
2022/01/28 08:56:03;;;;;;;17.83;4.28;;;5.20;99.90;;;;;;5031770;28;20088;-71
2022/01/28 08:58:28;;;;;;;15.18;3.30;;;5.20;99.90;;;;;;5030923;28;20089;-71
2022/01/28 09:00:54;;;;;;;24.30;3.95;;;5.20;99.90;;;;;;5038808;28;20043;-70
2022/01/28 09:03:20;;;;;;;18.92;4.90;;;5.30;99.90;;;;;;5051055;28;20037;-70
2022/01/28 09:05:46;;;;;;;18.35;3.65;;;5.30;99.90;;;;;;5050174;28;20079;-70
2022/01/28 09:08:12;;;;;;;23.00;4.18;;;5.30;99.90;;;;;;5050771;28;20052;-70
2022/01/28 09:10:55;;;;;;;24.80;4.80;;;5.40;99.90;;;;;;5050981;28;20067;-71
2022/01/28 09:13:22;;;;;;;24.17;4.35;;;5.50;99.90;;;;;;5049055;28;20053;-70
2022/01/28 09:15:49;;;;;;;30.75;4.25;;;5.50;99.90;;;;;;5048497;28;20091;-70
2022/01/28 09:18:16;;;;;;;22.88;4.43;;;5.60;99.90;;;;;;5047760;28;20045;-70
2022/01/28 09:20:42;;;;;;;30.52;4.20;;;5.70;99.90;;;;;;5049649;28;20052;-71
2022/01/28 09:23:09;;;;;;;20.85;4.35;;;5.80;99.90;;;;;;5051036;28;20053;-70
2022/01/28 09:25:35;;;;;;;21.85;4.35;;;5.90;99.90;;;;;;5052008;28;20131;-70
2022/01/28 09:28:01;;;;;;;25.98;4.68;;;6.00;99.90;;;;;;5045828;28;20116;-69
2022/01/28 09:30:27;;;;;;;23.23;4.30;;;6.10;99.90;;;;;;5050387;28;20862;-69
2022/01/28 09:32:53;;;;;;;20.00;4.57;;;6.10;99.90;;;;;;5049472;28;20132;-69
2022/01/28 09:35:19;;;;;;;22.60;4.90;;;6.10;99.90;;;;;;5049561;28;20044;-69
2022/01/28 09:37:45;;;;;;;21.92;5.00;;;6.10;99.90;;;;;;5049808;28;20483;-70
2022/01/28 09:40:12;;;;;;;20.15;4.63;;;6.10;99.90;;;;;;5049982;28;20064;-68
2022/01/28 09:42:41;;;;;;;23.02;3.85;;;6.10;99.90;;;;;;5050238;28;20056;-66
2022/01/28 09:45:09;;;;;;;21.75;4.88;;;6.10;99.90;;;;;;5048051;28;20045;-72
2022/01/28 09:47:36;;;;;;;22.05;4.15;;;6.10;99.90;;;;;;5048983;28;20052;-70
2022/01/28 09:50:06;;;;;;;19.55;3.47;;;6.10;99.90;;;;;;5049071;28;20049;-71
2022/01/28 09:52:32;;;;;;;25.02;4.75;;;6.10;99.90;;;;;;5033723;28;20123;-72
2022/01/28 09:54:58;;;;;;;26.13;5.60;;;6.10;99.90;;;;;;5028035;28;20635;-72
2022/01/28 09:57:23;;;;;;;24.27;5.80;;;6.10;99.90;;;;;;5046368;28;20128;-72
2022/01/28 09:59:49;;;;;;;23.48;5.18;;;6.10;99.90;;;;;;5047162;28;20041;-71
2022/01/28 10:02:15;;;;;;;23.02;4.95;;;6.10;99.90;;;;;;5049362;28;20170;-73
2022/01/28 10:04:41;;;;;;;19.88;4.30;;;6.20;99.90;;;;;;5049186;28;20487;-72
2022/01/28 10:07:11;;;;;;;19.52;4.13;;;6.10;99.90;;;;;;5049365;28;20045;-72
2022/01/28 10:09:52;;;;;;;14.98;2.85;;;6.20;99.90;;;;;;5049276;28;20061;-72
2022/01/28 10:12:24;;;;;;;26.60;3.92;;;6.10;99.90;;;;;;5050284;28;20041;-68
2022/01/28 10:15:03;;;;;;;25.08;3.85;;;6.20;99.90;;;;;;5050667;28;20403;-67
2022/01/28 10:17:58;;;;;;;20.55;3.15;;;6.10;99.90;;;;;;5050446;28;20162;-67
2022/01/28 10:20:25;;;;;;;19.73;4.32;;;6.20;99.90;;;;;;5049797;28;20408;-68
2022/01/28 10:22:57;;;;;;;12.00;3.28;;;6.20;99.90;;;;;;5048479;28;20052;-67
2022/01/28 10:25:32;;;;;;;19.15;3.33;;;6.20;99.90;;;;;;5049347;28;20140;-67
2022/01/28 10:28:09;;;;;;;18.13;4.85;;;6.30;99.90;;;;;;5049054;28;20053;-67
2022/01/28 10:30:44;;;;;;;16.70;3.92;;;6.30;99.90;;;;;;5048511;28;20052;-67
2022/01/28 10:33:18;;;;;;;15.77;3.45;;;6.30;99.90;;;;;;5049486;28;20064;-67
2022/01/28 10:35:59;;;;;;;18.52;4.38;;;6.30;99.90;;;;;;5049041;28;20049;-67
2022/01/28 10:38:29;;;;;;;17.67;3.60;;;6.30;99.90;;;;;;5048486;28;20083;-66
2022/01/28 10:41:25;;;;;;;22.60;3.60;;;6.30;99.90;;;;;;5049491;28;20136;-67
2022/01/28 10:43:54;;;;;;;17.75;3.80;;;6.30;99.90;;;;;;5028384;28;20049;-67
2022/01/28 10:46:33;;;;;;;17.15;3.80;;;6.40;99.90;;;;;;5029558;28;20056;-67
2022/01/28 10:49:05;;;;;;;22.92;3.10;;;6.40;99.90;;;;;;5029167;28;20041;-67
2022/01/28 10:51:48;;;;;;;27.52;4.97;;;6.40;99.90;;;;;;5029840;28;20077;-68
2022/01/28 10:54:21;;;;;;;18.17;4.72;;;6.40;99.90;;;;;;5049246;28;20048;-68
2022/01/28 10:57:01;;;;;;;17.70;5.07;;;6.50;99.90;;;;;;5048876;28;20057;-68
2022/01/28 10:59:33;;;;;;;24.73;4.03;;;6.50;99.90;;;;;;5048448;28;20083;-67
2022/01/28 11:01:59;;;;;;;20.90;5.70;;;6.50;99.90;;;;;;5048514;28;20079;-67
2022/01/28 11:04:25;;;;;;;20.23;4.50;;;6.50;99.90;;;;;;5047944;28;20132;-67
2022/01/28 11:06:54;;;;;;;15.65;4.38;;;6.60;99.90;;;;;;5048683;28;20045;-68
2022/01/28 11:09:21;;;;;;;26.55;4.63;;;6.60;99.90;;;;;;5048380;28;20048;-68
2022/01/28 11:11:48;;;;;;;30.90;5.85;;;6.70;99.90;;;;;;5049503;28;20037;-68
2022/01/28 11:14:14;;;;;;;16.33;3.53;;;6.70;99.90;;;;;;5050551;28;20045;-68
2022/01/28 11:16:40;;;;;;;16.60;4.00;;;6.80;99.90;;;;;;5050118;28;20060;-68
2022/01/28 11:19:09;;;;;;;12.23;2.95;;;6.70;99.90;;;;;;5049844;28;20044;-68
2022/01/28 11:22:14;;;;;;;15.50;3.97;;;6.70;99.90;;;;;;5042066;28;20045;-66
2022/01/28 11:25:13;;;;;;;12.07;3.40;;;6.70;99.90;;;;;;5025769;28;20111;-67
2022/01/28 11:27:40;;;;;;;15.15;3.47;;;6.60;99.90;;;;;;5028428;28;20045;-68
2022/01/28 11:30:18;;;;;;;21.30;3.28;;;6.70;99.90;;;;;;5029177;28;20079;-68
2022/01/28 11:33:02;;;;;;;22.98;4.57;;;6.80;99.90;;;;;;5028275;28;20091;-68
2022/01/28 11:35:37;;;;;;;15.82;3.75;;;6.90;99.90;;;;;;5030323;28;20285;-68
2022/01/28 11:38:26;;;;;;;7.75;3.17;;;7.00;99.90;;;;;;5065715;28;20404;-68
2022/01/28 11:41:08;;;;;;;13.50;3.25;;;7.00;99.90;;;;;;5046981;28;20068;-69
2022/01/28 11:43:42;;;;;;;23.90;4.28;;;7.10;99.90;;;;;;5052764;28;20047;-69
2022/01/28 11:46:36;;;;;;;13.32;3.20;;;7.10;99.90;;;;;;5052568;28;20081;-69
2022/01/28 11:49:02;;;;;;;18.80;3.65;;;7.10;99.90;;;;;;5052893;28;20056;-69
2022/01/28 11:51:37;;;;;;;19.73;3.58;;;7.20;99.90;;;;;;5052330;28;20052;-69
2022/01/28 11:54:09;;;;;;;18.42;4.72;;;7.20;99.90;;;;;;5051405;28;20530;-69
2022/01/28 11:56:41;;;;;;;15.20;3.33;;;7.10;99.90;;;;;;5052772;28;20077;-69
2022/01/28 11:59:09;;;;;;;16.83;3.28;;;7.20;99.90;;;;;;5054110;28;20053;-69
2022/01/28 12:01:40;;;;;;;18.25;4.03;;;7.20;99.90;;;;;;5051328;28;20049;-68
2022/01/28 12:04:36;;;;;;;20.15;3.42;;;7.30;99.90;;;;;;5051264;28;20060;-69
2022/01/28 12:07:04;;;;;;;11.02;2.80;;;7.40;99.90;;;;;;5052255;28;20756;-69
2022/01/28 12:09:32;;;;;;;20.75;3.47;;;7.60;99.90;;;;;;5051608;28;20056;-69
2022/01/28 12:11:59;;;;;;;11.05;2.40;;;7.70;99.90;;;;;;5052004;28;20522;-72
2022/01/28 12:14:55;;;;;;;14.88;2.88;;;7.80;99.90;;;;;;5051933;28;20060;-72
2022/01/28 12:17:33;;;;;;;13.75;2.50;;;7.70;99.90;;;;;;5052304;28;20057;-71
2022/01/28 12:20:24;;;;;;;12.60;2.97;;;7.50;99.90;;;;;;5047381;28;20052;-71
2022/01/28 12:23:25;;;;;;;15.00;3.08;;;7.40;99.90;;;;;;5050924;28;20388;-70
2022/01/28 12:25:55;;;;;;;17.30;3.60;;;7.50;99.90;;;;;;5050911;28;20110;-71
2022/01/28 12:28:23;;;;;;;16.70;3.50;;;7.50;99.90;;;;;;5051576;28;20399;-71
2022/01/28 12:31:02;;;;;;;14.55;3.63;;;7.60;99.90;;;;;;5050668;28;20045;-71
2022/01/28 12:33:38;;;;;;;23.42;3.13;;;7.60;99.90;;;;;;5031748;28;20064;-70
2022/01/28 12:36:16;;;;;;;13.68;3.28;;;7.50;99.90;;;;;;5047243;28;20131;-70
2022/01/28 12:38:56;;;;;;;13.23;3.03;;;7.60;99.90;;;;;;5049881;28;20079;-72
2022/01/28 12:41:23;;;;;;;19.60;4.57;;;7.60;99.90;;;;;;5051919;28;20495;-72
2022/01/28 12:43:49;;;;;;;18.17;3.88;;;7.60;99.90;;;;;;5050785;28;20053;-72
2022/01/28 12:46:15;;;;;;;16.67;3.03;;;7.70;99.90;;;;;;5053204;28;20079;-72
2022/01/28 12:48:52;;;;;;;18.25;3.35;;;7.80;99.90;;;;;;5050337;28;20165;-71
2022/01/28 12:51:23;;;;;;;18.20;3.83;;;7.80;99.90;;;;;;5052177;28;20127;-71
2022/01/28 12:53:54;;;;;;;12.20;2.63;;;7.90;99.90;;;;;;5050565;28;20069;-70
2022/01/28 12:56:31;;;;;;;9.65;2.55;;;8.00;99.90;;;;;;5075656;28;20072;-68
2022/01/28 12:58:58;;;;;;;12.10;2.80;;;8.00;99.90;;;;;;5050178;28;20037;-68
2022/01/28 13:01:24;;;;;;;11.68;3.05;;;8.00;99.90;;;;;;5051661;28;20511;-69
2022/01/28 13:04:09;;;;;;;9.82;2.22;;;7.90;99.90;;;;;;5050224;28;20049;-69
2022/01/28 13:09:14;;;;;;;28.67;3.53;;;7.80;99.90;;;;;;5051465;28;20509;-69
2022/01/28 13:11:47;;;;;;;12.90;2.55;;;7.80;99.90;;;;;;5051569;28;20052;-69
2022/01/28 13:14:13;;;;;;;;;;;7.80;99.90;;;;;;5051581;28;20052;-69
2022/01/28 13:16:42;;;;;;;14.10;3.13;;;7.80;99.90;;;;;;5050137;28;20320;-69
2022/01/28 13:19:11;;;;;;;14.77;3.70;;;7.70;99.90;;;;;;5050302;28;20071;-69
2022/01/28 13:21:37;;;;;;;15.50;3.20;;;7.60;99.90;;;;;;5050759;28;20049;-69
2022/01/28 13:24:11;;;;;;;15.50;3.17;;;7.50;99.90;;;;;;5049749;28;20053;-69
2022/01/28 13:27:05;;;;;;;14.20;3.38;;;7.50;99.90;;;;;;5049888;28;20045;-69
2022/01/28 13:29:39;;;;;;;14.63;3.13;;;7.60;99.90;;;;;;5049480;28;20045;-68
2022/01/28 13:32:06;;;;;;;9.68;3.10;;;7.60;99.90;;;;;;5048153;28;20088;-68
2022/01/28 13:34:48;;;;;;;15.40;3.30;;;7.60;99.90;;;;;;5048749;28;20084;-69
2022/01/28 13:37:38;;;;;;;11.80;2.75;;;7.60;99.90;;;;;;5049828;28;20076;-68
2022/01/28 13:40:06;;;;;;;14.60;2.75;;;7.60;99.90;;;;;;5049670;28;20088;-69
2022/01/28 13:42:32;;;;;;;10.77;2.92;;;7.70;99.90;;;;;;5049715;28;20080;-68
2022/01/28 13:45:03;;;;;;;12.65;2.40;;;7.70;99.90;;;;;;5050552;28;20085;-69
2022/01/28 13:47:50;;;;;;;17.20;3.17;;;7.60;99.90;;;;;;5049161;28;20053;-69
2022/01/28 13:50:37;;;;;;;13.25;3.25;;;7.60;99.90;;;;;;5050007;28;20053;-69
2022/01/28 13:56:04;;;;;;;13.82;3.20;;;7.40;99.90;;;;;;5049856;28;20060;-69
2022/01/28 13:58:46;;;;;;;20.42;2.90;;;7.40;99.90;;;;;;5049884;28;20098;-69
2022/01/28 14:01:12;;;;;;;18.88;3.70;;;7.40;99.90;;;;;;5048406;28;20063;-69
2022/01/28 14:03:54;;;;;;;16.80;3.85;;;7.30;99.90;;;;;;5047515;28;20053;-69
2022/01/28 14:06:25;;;;;;;16.07;2.70;;;7.30;99.90;;;;;;5051046;28;20053;-69
2022/01/28 14:08:55;;;;;;;13.50;2.60;;;7.20;99.90;;;;;;5047658;28;20725;-70
2022/01/28 14:11:24;;;;;;;14.32;2.78;;;7.20;99.90;;;;;;5049873;28;20870;-70
2022/01/28 14:14:11;;;;;;;18.15;3.13;;;7.20;99.90;;;;;;5049733;28;20053;-69
2022/01/28 14:16:37;;;;;;;9.65;2.40;;;7.10;99.90;;;;;;5049070;28;20060;-70
2022/01/28 14:19:03;;;;;;;16.60;3.05;;;7.10;99.90;;;;;;5049726;28;20049;-69
2022/01/28 14:21:28;;;;;;;14.38;2.42;;;7.10;99.90;;;;;;5049343;28;20459;-70
2022/01/28 14:23:54;;;;;;;18.27;2.80;;;7.10;99.90;;;;;;5050711;28;20136;-70
2022/01/28 14:26:20;;;;;;;19.23;2.78;;;7.10;99.90;;;;;;5049813;28;20053;-70
2022/01/28 14:31:15;;;;;;;11.55;2.80;;;7.10;99.90;;;;;;5051231;28;20055;-69
2022/01/28 14:33:44;;;;;;;14.48;3.08;;;7.10;99.90;;;;;;5049214;28;20399;-70
2022/01/28 14:36:10;;;;;;;9.65;2.67;;;7.00;99.90;;;;;;5050307;28;20134;-69
2022/01/28 14:38:35;;;;;;;9.15;2.38;;;7.00;99.90;;;;;;5049454;28;20061;-70
2022/01/28 14:41:01;;;;;;;15.38;3.47;;;7.00;99.90;;;;;;5050993;28;20053;-70
2022/01/28 14:43:27;;;;;;;14.55;3.10;;;6.90;99.90;;;;;;5048822;28;20056;-70